Time;durP1;ratioP1;P1;durP2;ratioP2;P2;SDS_P1;SDS_P2;PMS_P1;PMS_P2;Temp;Humidity;BMP_temperature;BMP_pressure;BME280_temperature;BME280_humidity;BME280_pressure;Samples;Min_cycle;Max_cycle;Signal;HPM_P1;HPM_P2
2022/06/30 00:01:36;;;;;;;7.50;4.10;;;24.30;53.50;;;;;;4972024;28;20082;-73
2022/06/30 00:04:02;;;;;;;11.90;4.03;;;24.30;53.50;;;;;;4972375;28;20027;-72
2022/06/30 00:06:27;;;;;;;8.32;3.53;;;24.40;53.60;;;;;;4971740;28;20034;-72
2022/06/30 00:08:53;;;;;;;7.20;3.40;;;24.40;53.50;;;;;;4971718;28;20031;-72
2022/06/30 00:11:20;;;;;;;7.38;3.90;;;24.40;53.60;;;;;;4976691;23;20436;-70
2022/06/30 00:13:46;;;;;;;5.93;3.30;;;24.30;53.60;;;;;;4947186;28;20564;-70
2022/06/30 00:16:12;;;;;;;5.65;3.35;;;24.30;54.30;;;;;;4966410;28;20530;-70
2022/06/30 00:18:39;;;;;;;5.25;2.60;;;24.30;53.60;;;;;;4951248;29;20391;-70
2022/06/30 00:21:05;;;;;;;7.45;3.17;;;24.30;53.70;;;;;;4934575;29;20066;-70
2022/06/30 00:23:31;;;;;;;6.15;3.10;;;24.30;53.50;;;;;;4934931;29;20820;-70
2022/06/30 00:25:57;;;;;;;6.57;3.00;;;24.30;53.50;;;;;;4950224;28;20047;-70
2022/06/30 00:28:23;;;;;;;7.15;3.38;;;24.30;53.60;;;;;;4950892;29;20507;-70
2022/06/30 00:30:51;;;;;;;6.05;2.80;;;24.30;53.60;;;;;;4946929;29;20118;-71
2022/06/30 00:33:17;;;;;;;5.82;2.85;;;24.30;53.60;;;;;;4935882;29;20415;-70
2022/06/30 00:35:43;;;;;;;5.53;2.20;;;24.30;53.60;;;;;;4950830;29;20039;-70
2022/06/30 00:38:10;;;;;;;4.82;2.78;;;24.30;53.70;;;;;;4952568;28;20035;-70
2022/06/30 00:40:36;;;;;;;4.70;2.45;;;24.20;53.70;;;;;;4951030;29;20186;-70
2022/06/30 00:43:03;;;;;;;4.78;2.67;;;24.30;53.70;;;;;;4952035;28;20110;-70
2022/06/30 00:45:28;;;;;;;4.68;2.33;;;24.30;53.80;;;;;;4951900;28;20397;-70
2022/06/30 00:47:54;;;;;;;7.88;2.50;;;24.30;53.80;;;;;;4934758;29;20031;-71
2022/06/30 00:50:20;;;;;;;5.07;2.65;;;24.30;53.90;;;;;;4934697;29;20031;-70
2022/06/30 00:52:50;;;;;;;5.47;2.30;;;24.30;54.10;;;;;;4951555;28;20038;-71
2022/06/30 00:55:18;;;;;;;4.05;2.60;;;24.20;54.10;;;;;;4951820;28;20110;-71
2022/06/30 00:57:45;;;;;;;5.30;2.63;;;24.20;54.20;;;;;;4950583;29;20039;-71
2022/06/30 01:00:14;;;;;;;7.15;2.53;;;24.30;54.40;;;;;;4951698;28;20060;-71
2022/06/30 01:02:40;;;;;;;4.10;2.67;;;24.30;54.60;;;;;;4950695;29;20077;-71
2022/06/30 01:05:07;;;;;;;6.05;2.75;;;24.30;54.60;;;;;;4950710;29;20043;-70
2022/06/30 01:07:34;;;;;;;22.35;12.93;;;24.30;54.70;;;;;;4934213;29;20142;-71
2022/06/30 01:12:47;;;;;;;16.13;9.73;;;24.20;55.20;;;;;;4953384;29;20082;-71
2022/06/30 01:15:20;;;;;;;18.65;10.57;;;24.20;55.20;;;;;;4953471;29;20036;-71
2022/06/30 01:17:49;;;;;;;12.82;7.30;;;24.30;55.40;;;;;;4953362;28;20424;-71
2022/06/30 01:20:16;;;;;;;12.55;6.88;;;24.30;55.50;;;;;;4920856;29;20031;-70
2022/06/30 01:22:43;;;;;;;17.75;5.07;;;24.30;55.60;;;;;;4953535;28;20029;-71
2022/06/30 01:25:10;;;;;;;10.70;5.13;;;24.20;55.60;;;;;;4952270;29;20023;-71
2022/06/30 01:27:37;;;;;;;9.10;4.80;;;24.20;55.70;;;;;;4953227;28;20039;-71
2022/06/30 01:30:03;;;;;;;12.13;4.25;;;24.20;55.80;;;;;;4953491;29;20035;-70
2022/06/30 01:32:30;;;;;;;9.95;3.83;;;24.30;56.00;;;;;;4952182;29;20039;-70
2022/06/30 01:34:59;;;;;;;8.77;3.75;;;24.30;56.00;;;;;;4952482;29;20035;-70
2022/06/30 01:37:26;;;;;;;6.40;3.10;;;24.30;56.00;;;;;;4955109;28;20480;-70
2022/06/30 01:39:52;;;;;;;7.90;4.25;;;24.30;56.10;;;;;;4957336;28;20028;-71
2022/06/30 01:42:18;;;;;;;7.50;3.22;;;24.20;56.10;;;;;;4955886;29;20484;-71
2022/06/30 01:44:44;;;;;;;6.03;2.63;;;24.20;56.20;;;;;;4957185;29;20081;-70
2022/06/30 01:47:10;;;;;;;8.50;3.50;;;24.30;56.40;;;;;;4955823;29;20480;-71
2022/06/30 01:49:36;;;;;;;7.93;3.10;;;24.30;56.40;;;;;;4956134;29;20476;-71
2022/06/30 01:52:03;;;;;;;6.60;2.80;;;24.30;56.50;;;;;;4955914;29;20391;-71
2022/06/30 01:54:29;;;;;;;6.20;3.10;;;24.20;56.60;;;;;;4955722;29;20049;-70
2022/06/30 01:56:54;;;;;;;5.43;2.97;;;24.20;56.60;;;;;;4956629;28;20023;-70
2022/06/30 01:59:20;;;;;;;4.75;2.60;;;24.20;56.70;;;;;;4957118;29;20039;-71
2022/06/30 02:01:46;;;;;;;6.50;2.75;;;24.20;56.80;;;;;;4957023;29;20027;-71
2022/06/30 02:06:56;;;;;;;6.43;2.95;;;24.20;57.00;;;;;;4957082;29;20114;-70
2022/06/30 02:09:22;;;;;;;7.93;2.95;;;24.20;57.10;;;;;;4956584;28;20110;-71
2022/06/30 02:11:48;;;;;;;6.40;2.85;;;24.20;57.20;;;;;;4955409;29;20031;-71
2022/06/30 02:14:13;;;;;;;5.63;2.55;;;24.20;57.20;;;;;;4955347;29;20035;-70
2022/06/30 02:16:39;;;;;;;8.27;2.58;;;24.20;57.30;;;;;;4956352;29;20408;-70
2022/06/30 02:19:05;;;;;;;5.93;2.60;;;24.20;57.30;;;;;;4956494;28;20066;-71
2022/06/30 02:21:31;;;;;;;5.68;2.70;;;24.20;57.40;;;;;;4955457;29;20028;-70
2022/06/30 02:23:56;;;;;;;7.13;2.85;;;24.20;57.40;;;;;;4955096;29;20027;-71
2022/06/30 02:26:22;;;;;;;5.13;2.83;;;24.20;57.30;;;;;;4955139;29;20054;-70
2022/06/30 02:28:48;;;;;;;6.00;2.90;;;24.20;57.50;;;;;;4956441;29;20162;-70
2022/06/30 02:31:14;;;;;;;7.13;2.63;;;24.20;57.50;;;;;;4955065;29;20031;-71
2022/06/30 02:33:40;;;;;;;5.70;2.40;;;24.20;57.50;;;;;;4956298;28;20043;-70
2022/06/30 02:36:06;;;;;;;5.60;2.70;;;24.20;57.50;;;;;;4955944;28;20031;-70
2022/06/30 02:38:32;;;;;;;4.60;2.65;;;24.20;57.70;;;;;;4939175;29;20067;-71
2022/06/30 02:40:58;;;;;;;6.32;2.58;;;24.20;57.60;;;;;;4956220;28;20030;-71
2022/06/30 02:43:24;;;;;;;5.68;2.53;;;24.20;57.60;;;;;;4923076;29;20039;-71
2022/06/30 02:45:50;;;;;;;5.90;2.70;;;24.20;57.70;;;;;;4955740;29;20032;-70
2022/06/30 02:48:16;;;;;;;4.50;2.47;;;24.20;57.70;;;;;;4955448;28;20480;-71
2022/06/30 02:50:44;;;;;;;5.15;2.53;;;24.20;57.70;;;;;;4954865;29;20380;-71
2022/06/30 02:53:11;;;;;;;8.07;2.75;;;24.20;57.70;;;;;;4955855;29;20039;-70
2022/06/30 02:55:37;;;;;;;7.57;2.60;;;24.20;57.60;;;;;;4955660;28;20027;-70
2022/06/30 02:58:03;;;;;;;5.18;2.67;;;24.20;57.70;;;;;;4954714;29;20050;-71
2022/06/30 03:00:29;;;;;;;7.82;2.80;;;24.20;57.70;;;;;;4955869;28;20035;-71
2022/06/30 03:02:57;;;;;;;3.03;2.38;;;24.20;57.70;;;;;;4954899;29;20511;-71
2022/06/30 03:05:24;;;;;;;5.35;2.42;;;24.20;57.80;;;;;;4955727;28;20523;-71
2022/06/30 03:07:50;;;;;;;5.13;2.75;;;24.20;57.80;;;;;;4955511;29;20098;-71
2022/06/30 03:10:16;;;;;;;5.38;2.58;;;24.30;58.30;;;;;;4954598;29;20122;-70
2022/06/30 03:12:42;;;;;;;6.57;2.97;;;24.20;57.80;;;;;;4954391;29;20023;-71
2022/06/30 03:15:08;;;;;;;6.22;2.60;;;24.20;57.80;;;;;;4954142;29;20036;-70
2022/06/30 03:17:34;;;;;;;4.28;2.90;;;24.20;57.90;;;;;;4955380;28;20027;-71
2022/06/30 03:20:00;;;;;;;3.88;2.65;;;24.20;57.90;;;;;;4955437;29;20070;-70
2022/06/30 03:22:26;;;;;;;5.40;2.60;;;24.20;57.80;;;;;;4955320;29;20473;-70
2022/06/30 03:24:52;;;;;;;8.93;2.90;;;24.20;57.90;;;;;;4954343;29;20383;-71
2022/06/30 03:27:18;;;;;;;7.65;2.80;;;24.20;57.80;;;;;;4955168;29;20110;-71
2022/06/30 03:29:44;;;;;;;6.15;2.85;;;24.20;58.00;;;;;;4954152;29;20043;-71
2022/06/30 03:32:10;;;;;;;3.92;2.63;;;24.20;57.90;;;;;;4954123;29;20114;-71
2022/06/30 03:34:36;;;;;;;5.13;2.50;;;24.20;57.90;;;;;;4953881;29;20039;-71
2022/06/30 03:37:02;;;;;;;6.85;2.90;;;24.20;57.80;;;;;;4954899;28;20082;-71
2022/06/30 03:39:28;;;;;;;7.25;2.60;;;24.20;57.70;;;;;;4953972;29;20110;-70
2022/06/30 03:41:53;;;;;;;8.50;3.80;;;24.20;57.70;;;;;;4937952;29;20057;-71
2022/06/30 03:44:19;;;;;;;7.68;3.90;;;24.20;57.60;;;;;;4955224;29;20423;-71
2022/06/30 03:46:45;;;;;;;7.22;3.47;;;24.20;57.60;;;;;;4953583;29;20083;-71
2022/06/30 03:49:11;;;;;;;7.35;3.38;;;24.20;57.30;;;;;;4953913;29;20031;-71
2022/06/30 03:51:37;;;;;;;5.30;2.92;;;24.20;57.40;;;;;;4954896;28;20197;-71
2022/06/30 03:54:03;;;;;;;7.00;3.28;;;24.20;57.30;;;;;;4953651;29;20039;-71
2022/06/30 03:56:29;;;;;;;7.93;3.17;;;24.20;57.00;;;;;;4953510;29;20506;-71
2022/06/30 03:58:55;;;;;;;6.97;3.40;;;24.20;57.00;;;;;;4954437;28;20451;-71
2022/06/30 04:01:20;;;;;;;8.15;3.15;;;24.20;57.10;;;;;;4954135;29;20028;-71
2022/06/30 04:03:46;;;;;;;6.43;3.15;;;24.20;57.20;;;;;;4937674;29;20110;-71
2022/06/30 04:06:12;;;;;;;7.53;3.40;;;24.20;57.30;;;;;;4954553;29;20071;-71
2022/06/30 04:08:38;;;;;;;5.22;2.75;;;24.20;57.20;;;;;;4921935;29;20159;-71
2022/06/30 04:11:04;;;;;;;5.13;2.92;;;24.20;57.20;;;;;;4954362;28;20031;-71
2022/06/30 04:13:30;;;;;;;5.68;2.80;;;24.20;57.20;;;;;;4953521;29;20039;-71
2022/06/30 04:15:56;;;;;;;5.80;2.58;;;24.20;57.30;;;;;;4952949;29;20106;-71
2022/06/30 04:18:22;;;;;;;5.18;2.30;;;24.20;57.40;;;;;;4954027;29;20027;-70
2022/06/30 04:20:48;;;;;;;6.13;2.90;;;24.20;57.40;;;;;;4954299;28;20082;-71
2022/06/30 04:23:14;;;;;;;5.85;2.75;;;24.20;57.50;;;;;;4953375;29;20499;-71
2022/06/30 04:25:41;;;;;;;6.30;3.28;;;24.20;57.60;;;;;;4921305;29;20031;-71
2022/06/30 04:28:07;;;;;;;5.70;3.10;;;24.20;57.60;;;;;;4954492;28;20035;-71
2022/06/30 04:33:16;;;;;;;8.32;3.33;;;24.20;57.60;;;;;;4954158;29;20039;-71
2022/06/30 04:35:42;;;;;;;6.00;2.65;;;24.20;57.60;;;;;;4953718;28;20027;-71
2022/06/30 04:38:08;;;;;;;7.35;2.90;;;24.20;57.70;;;;;;4953315;29;20027;-71
2022/06/30 04:43:23;;;;;;;6.25;3.15;;;24.20;57.60;;;;;;4926518;28;20101;-71
2022/06/30 04:45:49;;;;;;;9.55;3.90;;;24.20;57.70;;;;;;4952671;29;20130;-71
2022/06/30 04:48:14;;;;;;;7.22;3.35;;;24.20;57.80;;;;;;4954211;29;20027;-71
2022/06/30 04:50:41;;;;;;;8.20;3.83;;;24.20;57.80;;;;;;4952587;29;20034;-71
2022/06/30 04:53:07;;;;;;;8.10;3.47;;;24.20;57.90;;;;;;4952949;29;20035;-71
2022/06/30 04:55:33;;;;;;;7.75;3.70;;;24.20;57.90;;;;;;4953666;29;20058;-71
2022/06/30 04:57:59;;;;;;;12.35;6.60;;;24.20;58.00;;;;;;4953734;28;20035;-71
2022/06/30 05:00:25;;;;;;;8.93;4.68;;;24.20;58.00;;;;;;4953757;28;20023;-71
2022/06/30 05:02:51;;;;;;;13.65;5.93;;;24.20;58.00;;;;;;4952704;29;20090;-71
2022/06/30 05:05:17;;;;;;;9.68;4.78;;;24.20;58.00;;;;;;4952485;29;20035;-70
2022/06/30 05:07:42;;;;;;;11.73;5.50;;;24.20;58.10;;;;;;4953629;29;20023;-70
2022/06/30 05:10:08;;;;;;;8.73;5.05;;;24.20;58.10;;;;;;4968577;28;20102;-71
2022/06/30 05:12:34;;;;;;;7.65;4.28;;;24.20;58.20;;;;;;4951999;29;20035;-71
2022/06/30 05:15:00;;;;;;;7.35;4.05;;;24.20;58.30;;;;;;4953639;28;20031;-70
2022/06/30 05:17:26;;;;;;;8.63;3.95;;;24.20;59.00;;;;;;4952297;29;20031;-71
2022/06/30 05:19:51;;;;;;;8.68;3.90;;;24.20;58.50;;;;;;4952493;29;20023;-71
2022/06/30 05:22:17;;;;;;;8.70;3.85;;;24.20;58.50;;;;;;4953464;29;20492;-71
2022/06/30 05:27:27;;;;;;;12.27;5.78;;;24.20;58.60;;;;;;4953365;29;20027;-71
2022/06/30 05:29:54;;;;;;;15.82;4.53;;;24.30;58.60;;;;;;4953243;28;20040;-71
2022/06/30 05:32:20;;;;;;;9.18;4.53;;;24.20;58.50;;;;;;4953347;28;20039;-71
2022/06/30 05:34:46;;;;;;;11.65;5.57;;;24.30;58.70;;;;;;4953419;28;20035;-71
2022/06/30 05:37:13;;;;;;;9.07;4.75;;;24.30;58.70;;;;;;4936097;29;20039;-71
2022/06/30 05:39:39;;;;;;;8.45;4.57;;;24.30;58.80;;;;;;4952436;29;20031;-71
2022/06/30 05:42:05;;;;;;;8.02;4.80;;;24.20;58.70;;;;;;4952239;29;20031;-71
2022/06/30 05:44:32;;;;;;;9.57;4.40;;;24.20;59.10;;;;;;4952218;29;20023;-71
2022/06/30 05:46:58;;;;;;;9.45;4.13;;;24.30;58.90;;;;;;4952031;29;20046;-71
2022/06/30 05:49:25;;;;;;;7.82;3.83;;;24.20;58.80;;;;;;4952285;29;20035;-71
2022/06/30 05:51:52;;;;;;;9.75;3.80;;;24.30;59.00;;;;;;4953214;28;20392;-71
2022/06/30 05:54:18;;;;;;;9.40;4.03;;;24.30;59.10;;;;;;4953201;28;20083;-71
2022/06/30 05:56:44;;;;;;;7.45;3.70;;;24.30;59.10;;;;;;4952107;28;20031;-71
2022/06/30 05:59:10;;;;;;;9.15;3.95;;;24.30;59.20;;;;;;4952126;29;20027;-71
2022/06/30 06:01:36;;;;;;;5.55;3.60;;;24.30;59.20;;;;;;4952033;29;20118;-73
2022/06/30 06:04:02;;;;;;;7.25;3.60;;;24.30;59.20;;;;;;4936587;29;20130;-71
2022/06/30 06:06:28;;;;;;;9.57;3.33;;;24.30;59.30;;;;;;4952847;28;20035;-71
2022/06/30 06:08:54;;;;;;;11.00;3.80;;;24.30;59.50;;;;;;4936227;29;20035;-71
2022/06/30 06:11:20;;;;;;;6.63;3.33;;;24.30;59.60;;;;;;4960568;23;20063;-72
2022/06/30 06:13:45;;;;;;;10.82;3.80;;;24.30;59.40;;;;;;4916774;29;20023;-72
2022/06/30 06:16:11;;;;;;;7.63;3.90;;;24.30;59.70;;;;;;4929620;29;20028;-72
2022/06/30 06:18:37;;;;;;;14.57;4.78;;;24.30;59.80;;;;;;4932943;29;20040;-72
2022/06/30 06:21:03;;;;;;;9.68;4.22;;;24.30;59.40;;;;;;4901487;29;20032;-72
2022/06/30 06:23:29;;;;;;;11.43;3.95;;;24.40;59.40;;;;;;4950116;28;20070;-72
2022/06/30 06:25:54;;;;;;;9.32;4.00;;;24.40;59.40;;;;;;4937176;29;20110;-72
2022/06/30 06:31:04;;;;;;;13.55;4.43;;;24.30;59.80;;;;;;4937427;29;20031;-72
2022/06/30 06:33:30;;;;;;;10.90;4.03;;;24.30;59.50;;;;;;4937139;29;20114;-72
2022/06/30 06:35:56;;;;;;;7.82;4.00;;;24.30;59.50;;;;;;4936879;29;20091;-73
2022/06/30 06:38:22;;;;;;;10.25;4.40;;;24.30;59.80;;;;;;4937182;29;20032;-72
2022/06/30 06:40:48;;;;;;;7.55;4.28;;;24.30;59.60;;;;;;4951889;29;20453;-72
2022/06/30 06:43:13;;;;;;;13.75;4.00;;;24.30;59.70;;;;;;4937130;29;20036;-72
2022/06/30 06:45:39;;;;;;;10.05;4.10;;;24.30;60.30;;;;;;4936830;29;20032;-72
2022/06/30 06:48:05;;;;;;;10.20;3.90;;;24.30;59.90;;;;;;4937097;29;20028;-72
2022/06/30 06:50:31;;;;;;;9.75;4.25;;;24.30;59.90;;;;;;4937093;29;20067;-72
2022/06/30 06:52:57;;;;;;;6.25;3.40;;;24.30;60.30;;;;;;4936998;29;20035;-72
2022/06/30 06:55:22;;;;;;;7.63;3.70;;;24.30;60.40;;;;;;4935886;29;20377;-73
2022/06/30 06:57:48;;;;;;;7.28;3.47;;;24.30;60.40;;;;;;4936600;29;20119;-72
2022/06/30 07:00:15;;;;;;;11.48;4.13;;;24.30;60.20;;;;;;4917946;29;20110;-73
2022/06/30 07:02:41;;;;;;;8.98;3.85;;;24.30;60.50;;;;;;4936420;29;20075;-72
2022/06/30 07:05:08;;;;;;;10.32;3.88;;;24.30;60.30;;;;;;4936616;29;20396;-72
2022/06/30 07:07:35;;;;;;;14.57;3.90;;;24.40;60.10;;;;;;4899583;29;20036;-72
2022/06/30 07:10:01;;;;;;;8.25;3.78;;;24.30;60.50;;;;;;4900835;29;20477;-72
2022/06/30 07:12:26;;;;;;;7.07;3.88;;;24.30;60.90;;;;;;4917418;29;20497;-72
2022/06/30 07:14:52;;;;;;;13.60;4.00;;;24.30;60.90;;;;;;4917383;29;20031;-72
2022/06/30 07:17:19;;;;;;;9.73;4.05;;;24.30;60.90;;;;;;4916069;29;20107;-72
2022/06/30 07:19:45;;;;;;;6.20;3.78;;;24.30;60.80;;;;;;4917238;29;20410;-72
2022/06/30 07:22:11;;;;;;;9.65;3.95;;;24.30;61.00;;;;;;4917370;29;20024;-73
2022/06/30 07:24:37;;;;;;;11.90;4.07;;;24.30;61.00;;;;;;4916098;29;20024;-72
2022/06/30 07:27:03;;;;;;;7.40;3.70;;;24.30;61.00;;;;;;4917110;29;20068;-73
2022/06/30 07:29:30;;;;;;;12.00;3.58;;;24.30;60.90;;;;;;4917365;29;20028;-72
2022/06/30 07:31:57;;;;;;;8.32;4.10;;;24.30;61.20;;;;;;4917558;29;20095;-72
2022/06/30 07:34:23;;;;;;;7.13;3.53;;;24.30;61.00;;;;;;4916488;29;20396;-73
2022/06/30 07:36:48;;;;;;;12.20;4.07;;;24.30;61.10;;;;;;4916900;29;20024;-72
2022/06/30 07:39:14;;;;;;;9.70;4.15;;;24.30;61.10;;;;;;4917047;29;20028;-73
2022/06/30 07:41:40;;;;;;;9.75;3.95;;;24.30;61.40;;;;;;4917008;29;20572;-72
2022/06/30 07:44:06;;;;;;;7.70;4.00;;;24.30;61.00;;;;;;4917107;29;20396;-72
2022/06/30 07:46:32;;;;;;;7.30;3.83;;;24.30;61.00;;;;;;4915019;29;20466;-72
2022/06/30 07:48:58;;;;;;;7.45;4.18;;;24.30;61.10;;;;;;4916979;29;20028;-72
2022/06/30 07:51:24;;;;;;;6.78;4.03;;;24.40;61.60;;;;;;4900079;29;20036;-72
2022/06/30 07:53:50;;;;;;;7.85;4.07;;;24.40;61.10;;;;;;4916790;29;20123;-73
2022/06/30 07:56:16;;;;;;;12.90;4.28;;;24.50;61.30;;;;;;4916429;29;20032;-73
2022/06/30 07:58:43;;;;;;;6.63;4.10;;;24.50;61.80;;;;;;4916773;29;20024;-73
2022/06/30 08:01:09;;;;;;;6.45;4.18;;;24.50;62.00;;;;;;4915261;29;20024;-73
2022/06/30 08:03:35;;;;;;;14.50;4.55;;;24.60;62.10;;;;;;4916651;29;20474;-72
2022/06/30 08:06:00;;;;;;;8.65;4.40;;;24.60;62.20;;;;;;4916277;29;20063;-73
2022/06/30 08:08:26;;;;;;;15.52;4.60;;;24.70;62.60;;;;;;4916788;29;20028;-73
2022/06/30 08:10:53;;;;;;;7.28;4.00;;;24.70;62.90;;;;;;4916301;29;20075;-73
2022/06/30 08:13:19;;;;;;;10.38;4.93;;;24.70;62.30;;;;;;4916211;29;20036;-75
2022/06/30 08:15:45;;;;;;;7.53;4.18;;;24.80;63.10;;;;;;4922206;29;20051;-65
2022/06/30 08:18:11;;;;;;;15.38;5.30;;;24.80;63.00;;;;;;4935441;29;20059;-70
2022/06/30 08:20:36;;;;;;;15.90;6.22;;;24.80;63.00;;;;;;4935479;29;20056;-70
2022/06/30 08:23:02;;;;;;;8.30;4.18;;;24.80;63.50;;;;;;4935286;29;20051;-71
2022/06/30 08:25:28;;;;;;;8.77;5.03;;;24.70;62.50;;;;;;4935264;29;20043;-71
2022/06/30 08:27:54;;;;;;;10.35;4.60;;;24.70;63.20;;;;;;4935062;29;20032;-71
2022/06/30 08:30:20;;;;;;;9.65;4.68;;;24.70;62.60;;;;;;4926866;29;20024;-71
2022/06/30 08:32:46;;;;;;;12.60;5.03;;;24.70;62.80;;;;;;4928252;29;20028;-71
2022/06/30 08:35:13;;;;;;;18.15;5.88;;;24.70;63.10;;;;;;4935087;29;20036;-71
2022/06/30 08:37:39;;;;;;;11.80;5.72;;;24.80;63.40;;;;;;4934873;29;20030;-71
2022/06/30 08:42:50;;;;;;;10.45;5.68;;;24.70;63.10;;;;;;4935137;29;20039;-71
2022/06/30 08:45:20;;;;;;;8.68;5.28;;;24.70;63.20;;;;;;4934556;29;20035;-71
2022/06/30 08:47:48;;;;;;;7.85;4.50;;;24.80;63.00;;;;;;4934412;29;20039;-71
2022/06/30 08:50:16;;;;;;;10.65;4.80;;;24.80;62.80;;;;;;4934840;29;20032;-71
2022/06/30 08:52:51;;;;;;;18.23;5.03;;;24.70;63.30;;;;;;4934724;29;20037;-71
2022/06/30 08:55:20;;;;;;;15.57;5.45;;;24.70;62.70;;;;;;4917687;29;20039;-71
2022/06/30 08:57:47;;;;;;;11.75;6.03;;;24.70;62.70;;;;;;4934490;29;20024;-70
2022/06/30 09:00:16;;;;;;;11.77;4.70;;;24.70;62.80;;;;;;4917706;29;20054;-71
2022/06/30 09:02:43;;;;;;;12.35;4.97;;;24.70;62.70;;;;;;4934532;29;20038;-71
2022/06/30 09:05:09;;;;;;;12.27;6.28;;;24.70;62.70;;;;;;4934467;29;20032;-72
2022/06/30 09:07:36;;;;;;;10.50;6.85;;;24.70;63.10;;;;;;4933996;29;20106;-71
2022/06/30 09:10:03;;;;;;;15.80;6.65;;;24.70;63.10;;;;;;4917761;29;20126;-70
2022/06/30 09:12:29;;;;;;;10.07;6.45;;;24.70;62.90;;;;;;4934520;29;20039;-71
2022/06/30 09:14:55;;;;;;;12.77;6.15;;;24.70;62.70;;;;;;4934344;29;20456;-71
2022/06/30 09:17:23;;;;;;;10.57;5.72;;;24.70;62.50;;;;;;4934346;29;20020;-71
2022/06/30 09:19:52;;;;;;;8.57;5.80;;;24.80;62.60;;;;;;4934606;29;20103;-71
2022/06/30 09:22:18;;;;;;;9.47;6.40;;;24.70;62.40;;;;;;4916990;29;20027;-71
2022/06/30 09:24:44;;;;;;;12.60;6.07;;;24.70;62.50;;;;;;4934557;29;20028;-71
2022/06/30 09:27:19;;;;;;;10.77;5.78;;;24.80;62.80;;;;;;4934491;29;20159;-71
2022/06/30 09:29:49;;;;;;;15.30;6.15;;;24.80;62.50;;;;;;4934570;29;20024;-70
2022/06/30 09:32:15;;;;;;;12.55;5.88;;;24.80;62.40;;;;;;4917470;29;20040;-71
2022/06/30 09:34:42;;;;;;;9.13;5.47;;;24.80;62.50;;;;;;4917589;29;20036;-71
2022/06/30 09:37:23;;;;;;;9.52;5.45;;;24.80;62.70;;;;;;4931474;29;20535;-71
2022/06/30 09:39:51;;;;;;;11.25;5.32;;;24.80;62.90;;;;;;4933841;29;20031;-71
2022/06/30 09:42:43;;;;;;;10.30;5.55;;;24.80;62.80;;;;;;4934216;29;20020;-71
2022/06/30 09:45:11;;;;;;;14.18;6.38;;;24.80;63.00;;;;;;4932919;29;20040;-71
2022/06/30 09:47:52;;;;;;;10.68;5.80;;;24.80;63.20;;;;;;4917016;29;20040;-70
2022/06/30 09:50:18;;;;;;;9.00;5.63;;;24.80;63.50;;;;;;4933051;29;20038;-71
2022/06/30 09:52:44;;;;;;;11.93;5.63;;;24.80;63.50;;;;;;4934209;29;20087;-70
2022/06/30 09:55:10;;;;;;;13.60;6.15;;;24.80;63.70;;;;;;4934147;29;20036;-71
2022/06/30 09:57:38;;;;;;;13.68;5.95;;;24.80;63.70;;;;;;4933347;29;20055;-71
2022/06/30 10:00:13;;;;;;;12.77;6.22;;;24.80;63.60;;;;;;4936215;29;20110;-71
2022/06/30 10:02:41;;;;;;;11.80;5.75;;;24.80;63.90;;;;;;4936674;29;20036;-71
2022/06/30 10:05:09;;;;;;;8.88;5.53;;;24.80;63.60;;;;;;4936658;29;20477;-72
2022/06/30 10:07:36;;;;;;;11.73;5.43;;;24.90;64.00;;;;;;4937576;29;20031;-71
2022/06/30 10:10:04;;;;;;;16.33;5.93;;;24.80;63.90;;;;;;4936457;29;20062;-71
2022/06/30 10:12:31;;;;;;;13.48;5.78;;;24.80;63.90;;;;;;4937499;29;20036;-70
2022/06/30 10:14:57;;;;;;;12.98;6.32;;;24.90;64.10;;;;;;4937714;29;20107;-71
2022/06/30 10:17:29;;;;;;;15.20;6.10;;;24.80;64.10;;;;;;4937382;29;20584;-69
2022/06/30 10:19:55;;;;;;;13.18;7.15;;;24.90;64.60;;;;;;4937576;29;20063;-71
2022/06/30 10:22:24;;;;;;;17.50;7.57;;;24.90;65.00;;;;;;4937795;29;20440;-72
2022/06/30 10:24:52;;;;;;;13.98;7.95;;;25.00;65.20;;;;;;4937253;29;20038;-71
2022/06/30 10:27:19;;;;;;;14.23;7.68;;;25.00;66.00;;;;;;4937205;29;20031;-72
2022/06/30 10:30:09;;;;;;;9.27;6.88;;;25.00;66.00;;;;;;4937423;29;20027;-72
2022/06/30 10:33:02;;;;;;;16.10;7.78;;;25.00;65.40;;;;;;4936985;29;20028;-72
2022/06/30 10:35:51;;;;;;;15.27;7.65;;;25.00;65.50;;;;;;4937146;29;20031;-71
2022/06/30 10:38:59;;;;;;;14.68;7.13;;;25.00;66.00;;;;;;4920485;29;20028;-72
2022/06/30 10:41:25;;;;;;;11.55;6.60;;;25.00;66.10;;;;;;4936916;29;20062;-71
2022/06/30 10:44:03;;;;;;;13.52;6.25;;;25.00;66.50;;;;;;4937283;29;20059;-71
2022/06/30 10:46:29;;;;;;;30.65;19.20;;;25.00;66.10;;;;;;4936932;29;20036;-70
2022/06/30 10:48:55;;;;;;;52.65;39.08;;;25.00;66.20;;;;;;4920097;29;20031;-71
2022/06/30 10:51:22;;;;;;;42.72;31.45;;;25.00;66.10;;;;;;4920150;29;20039;-71
2022/06/30 10:53:58;;;;;;;40.58;26.13;;;25.00;66.20;;;;;;4919920;29;20046;-71
2022/06/30 10:56:44;;;;;;;32.70;22.05;;;25.00;65.90;;;;;;4919885;29;20042;-72
2022/06/30 10:59:12;;;;;;;31.08;19.88;;;25.00;66.20;;;;;;4936795;29;20111;-71
2022/06/30 11:01:40;;;;;;;28.60;18.55;;;25.00;66.10;;;;;;4919869;29;20152;-71
2022/06/30 11:04:09;;;;;;;24.70;17.77;;;25.00;66.50;;;;;;4919807;29;20032;-71
2022/06/30 11:06:55;;;;;;;29.05;18.85;;;25.00;65.50;;;;;;4932749;29;20031;-72
2022/06/30 11:09:43;;;;;;;27.90;16.23;;;25.00;66.40;;;;;;4935007;29;20427;-71
2022/06/30 11:12:17;;;;;;;26.45;15.73;;;25.00;66.10;;;;;;4935059;29;20082;-72
2022/06/30 11:14:48;;;;;;;21.95;15.32;;;25.00;66.40;;;;;;4918029;29;20492;-71
2022/06/30 11:17:15;;;;;;;23.23;14.85;;;25.00;66.10;;;;;;4933560;29;20107;-72
2022/06/30 11:19:41;;;;;;;26.17;14.73;;;25.00;66.10;;;;;;4935003;29;20024;-72
2022/06/30 11:22:08;;;;;;;19.13;12.63;;;25.00;65.90;;;;;;4934142;29;20030;-72
2022/06/30 11:24:40;;;;;;;19.65;12.48;;;25.00;66.10;;;;;;4934735;29;20032;-71
2022/06/30 11:27:24;;;;;;;17.40;12.35;;;25.00;66.20;;;;;;4933609;29;20055;-71
2022/06/30 11:29:58;;;;;;;19.45;12.07;;;25.00;65.90;;;;;;4932842;29;20043;-72
2022/06/30 11:32:24;;;;;;;18.33;11.85;;;25.00;65.70;;;;;;4934144;29;20502;-71
2022/06/30 11:35:09;;;;;;;17.85;11.02;;;25.00;65.70;;;;;;4932718;29;20175;-71
2022/06/30 11:37:34;;;;;;;17.60;11.90;;;25.00;65.80;;;;;;4933057;29;20103;-71
2022/06/30 11:40:07;;;;;;;18.55;11.55;;;25.00;65.70;;;;;;4948085;29;20039;-71
2022/06/30 11:42:34;;;;;;;16.25;11.45;;;25.00;65.90;;;;;;4934223;29;20032;-71
2022/06/30 11:44:59;;;;;;;21.42;12.07;;;25.00;66.00;;;;;;4916425;29;20035;-71
2022/06/30 11:47:28;;;;;;;16.80;10.80;;;25.00;66.00;;;;;;4933797;29;20039;-70
2022/06/30 11:49:59;;;;;;;18.45;11.18;;;25.00;66.40;;;;;;4917003;29;20035;-71
2022/06/30 11:52:38;;;;;;;19.35;11.32;;;25.00;66.30;;;;;;4916357;29;20110;-71
2022/06/30 11:55:18;;;;;;;18.17;11.27;;;25.00;66.00;;;;;;4934501;29;20035;-71
2022/06/30 11:57:47;;;;;;;21.05;11.70;;;25.00;65.80;;;;;;4934037;29;20024;-71
2022/06/30 12:00:25;;;;;;;17.30;11.07;;;25.00;64.90;;;;;;4934837;29;20024;-70
2022/06/30 12:02:51;;;;;;;18.42;10.88;;;25.00;65.70;;;;;;4935711;29;20031;-70
2022/06/30 12:05:23;;;;;;;15.98;10.18;;;25.00;65.50;;;;;;4918879;29;20377;-70
2022/06/30 12:07:49;;;;;;;16.33;11.23;;;25.00;66.00;;;;;;4934208;29;20522;-71
2022/06/30 12:10:18;;;;;;;15.13;10.00;;;25.00;66.00;;;;;;4935486;29;20111;-70
2022/06/30 12:12:44;;;;;;;18.42;10.32;;;25.00;66.40;;;;;;4934240;29;20031;-70
2022/06/30 12:15:14;;;;;;;17.23;9.98;;;25.00;65.20;;;;;;4935370;29;20492;-72
2022/06/30 12:17:50;;;;;;;13.38;9.15;;;25.00;66.50;;;;;;4934088;29;20585;-70
2022/06/30 12:20:17;;;;;;;15.65;10.13;;;25.00;65.70;;;;;;4935076;29;20067;-70
2022/06/30 12:22:49;;;;;;;22.73;15.52;;;25.00;65.80;;;;;;4918190;29;20036;-70
2022/06/30 12:25:16;;;;;;;31.10;22.98;;;25.00;66.30;;;;;;4928826;29;20119;-70
2022/06/30 12:27:52;;;;;;;21.90;16.02;;;25.00;65.80;;;;;;4933320;29;20459;-70
2022/06/30 12:30:29;;;;;;;21.40;14.75;;;25.00;65.50;;;;;;4929811;29;20399;-70
2022/06/30 12:32:57;;;;;;;21.58;15.93;;;25.00;65.30;;;;;;4933405;29;20555;-70
2022/06/30 12:35:25;;;;;;;16.88;12.43;;;25.00;65.80;;;;;;4933070;29;20031;-70
2022/06/30 12:37:53;;;;;;;19.40;12.25;;;25.00;65.50;;;;;;4915434;29;20086;-71
2022/06/30 12:40:25;;;;;;;18.55;13.15;;;25.00;65.30;;;;;;4933312;29;20031;-70
2022/06/30 12:42:53;;;;;;;18.23;13.15;;;25.00;65.80;;;;;;4933061;29;20494;-70
2022/06/30 12:46:00;;;;;;;18.67;13.13;;;25.00;65.60;;;;;;4932946;29;20054;-70
2022/06/30 12:48:52;;;;;;;17.33;12.68;;;25.00;65.70;;;;;;4916425;29;20043;-70
2022/06/30 12:51:30;;;;;;;17.98;12.90;;;25.10;66.00;;;;;;4901760;29;20763;-70
2022/06/30 12:54:01;;;;;;;40.13;29.73;;;25.00;65.50;;;;;;4932072;29;20031;-70
2022/06/30 12:56:27;;;;;;;59.78;52.47;;;25.10;66.00;;;;;;4932310;29;20059;-70
2022/06/30 12:58:59;;;;;;;50.22;43.33;;;25.10;66.00;;;;;;4933106;29;20465;-70
2022/06/30 13:01:27;;;;;;;50.08;44.58;;;25.10;65.40;;;;;;4932919;29;20107;-70
2022/06/30 13:03:59;;;;;;;37.92;31.45;;;25.10;65.90;;;;;;4933212;29;20067;-70